Weber Basin Water
2837 E Hwy 193, Layton
Last Weather Update:08/30/2011 11:00:00 PM
Date
ETo
ETc
Rain
Irrigation
Req
Temp
Max
Temp
Min
Temp
Avg
Avg RH
Avg Wind
Avg Solar
inches
inches
incehs
inches
F
F
F
%
%
watts/m2
07/01/2011 0.24" 0.19" 0.00" 0.19" 82.7° 56.4° 70.3° 40.3% 1.9 MPH 356.3w/m2
07/02/2011 0.25" 0.20" 0.00" 0.20" 93.5° 60.1° 77.7° 31.8% 1.8 MPH 358.9w/m2
07/03/2011 0.29" 0.23" 0.00" 0.23" 98.1° 64.7° 83.2° 22.2% 2.7 MPH 357.7w/m2
07/04/2011 0.16" 0.13" 0.00" 0.13" 86.7° 72.1° 78.4° 31.6% 2.7 MPH 176.2w/m2
07/05/2011 0.17" 0.14" 0.00" 0.14" 81.6° 68.2° 74.2° 41.5% 5.8 MPH 139.4w/m2
07/06/2011 0.22" 0.18" 0.00" 0.18" 85.7° 61.4° 74.2° 49.9% 2.0 MPH 310.7w/m2
07/07/2011 0.12" 0.10" 0.15" -0.05" 83.8° 64.3° 71.8° 52.9% 2.4 MPH 145.9w/m2
07/08/2011 0.17" 0.14" 0.01" 0.13" 84.4° 60.5° 70.9° 56.1% 2.1 MPH 236.2w/m2
07/09/2011 0.24" 0.20" 0.20" 0.00" 88.1° 59.5° 71.8° 46.0% 3.2 MPH 305.9w/m2
07/10/2011 0.25" 0.21" 0.00" 0.21" 88.0° 57.7° 72.4° 44.7% 3.5 MPH 305.1w/m2
07/11/2011 0.25" 0.21" 0.00" 0.21" 88.6° 61.1° 74.7° 40.4% 2.6 MPH 328.4w/m2
07/12/2011 0.18" 0.15" 0.02" 0.13" 86.0° 64.8° 74.4° 42.0% 2.0 MPH 245.6w/m2
07/13/2011 0.25" 0.21" 0.00" 0.21" 87.6° 66.3° 77.1° 31.7% 3.8 MPH 296.3w/m2
07/14/2011 0.30" 0.25" 0.00" 0.25" 86.9° 64.6° 77.5° 20.0% 5.1 MPH 356.8w/m2
07/15/2011 0.27" 0.23" 0.00" 0.23" 87.0° 57.5° 75.4° 22.2% 3.6 MPH 355.8w/m2
07/16/2011 0.28" 0.24" 0.00" 0.24" 90.2° 61.1° 76.9° 21.0% 3.3 MPH 359.8w/m2
07/17/2011 0.26" 0.22" 0.00" 0.22" 94.6° 65.5° 80.9° 21.5% 2.7 MPH 331.0w/m2
07/18/2011 0.20" 0.17" 0.00" 0.17" 93.6° 72.7° 80.3° 35.0% 2.9 MPH 217.7w/m2
07/19/2011 0.25" 0.21" 0.00" 0.21" 91.0° 67.7° 79.4° 34.9% 3.4 MPH 291.5w/m2
07/20/2011 0.24" 0.21" 0.00" 0.21" 86.3° 56.5° 72.6° 34.9% 2.1 MPH 345.7w/m2
07/21/2011 0.25" 0.21" 0.00" 0.21" 89.8° 58.9° 75.7° 29.2% 2.2 MPH 345.0w/m2
07/22/2011 0.25" 0.22" 0.00" 0.22" 91.1° 58.8° 76.3° 22.8% 2.4 MPH 347.1w/m2
07/23/2011 0.23" 0.20" 0.00" 0.20" 87.5° 59.8° 74.6° 31.6% 2.1 MPH 338.3w/m2
07/24/2011 0.25" 0.22" 0.00" 0.22" 94.4° 64.2° 80.1° 25.7% 2.2 MPH 339.3w/m2
07/25/2011 0.14" 0.12" 0.01" 0.11" 89.8° 67.4° 76.6° 32.5% 2.9 MPH 127.0w/m2
07/26/2011 0.23" 0.21" 0.00" 0.21" 88.3° 64.0° 75.4° 44.6% 2.5 MPH 301.3w/m2
07/27/2011 0.24" 0.21" 0.00" 0.21" 87.1° 62.0° 74.9° 38.8% 2.6 MPH 329.8w/m2
07/28/2011 0.23" 0.21" 0.00" 0.21" 88.1° 61.3° 75.9° 35.0% 2.0 MPH 332.7w/m2
07/29/2011 0.24" 0.22" 0.00" 0.22" 93.3° 63.6° 78.8° 28.7% 2.1 MPH 329.9w/m2
07/30/2011 0.16" 0.15" 0.00" 0.15" 86.6° 69.2° 76.5° 36.1% 2.5 MPH 189.4w/m2
07/31/2011 0.15" 0.13" 0.12" 0.01" 86.3° 66.0° 74.3° 53.9% 2.3 MPH 169.2w/m2
Totals: 6.96" 5.93" 0.51" 5.42" 98.1° 56.4° 75.9° 35.5% 2.8 MPH 289.4w/m2